createdAt,value
2023-02-14T00:01:17.121Z,10.80
2023-02-14T00:03:43.710Z,10.20
2023-02-14T00:06:11.999Z,10.70
2023-02-14T00:08:40.927Z,10.20
2023-02-14T00:11:09.084Z,10.93
2023-02-14T00:13:35.716Z,10.90
2023-02-14T00:16:03.590Z,10.77
2023-02-14T00:18:48.884Z,11.17
2023-02-14T00:21:16.297Z,11.23
2023-02-14T00:23:42.897Z,11.00
2023-02-14T00:26:16.466Z,10.37
2023-02-14T00:28:43.137Z,9.97
2023-02-14T00:31:10.008Z,9.37
2023-02-14T00:33:36.881Z,9.43
2023-02-14T00:36:04.608Z,9.90
2023-02-14T00:38:31.206Z,9.30
2023-02-14T00:40:58.590Z,9.43
2023-02-14T00:43:25.452Z,10.03
2023-02-14T00:45:52.030Z,9.43
2023-02-14T00:48:19.179Z,9.80
2023-02-14T00:50:46.322Z,9.37
2023-02-14T00:53:12.937Z,9.90
2023-02-14T00:55:39.595Z,10.10
2023-02-14T00:58:06.505Z,9.20
2023-02-14T01:00:33.148Z,9.20
2023-02-14T01:02:59.729Z,9.37
2023-02-14T01:05:26.361Z,9.87
2023-02-14T01:07:52.960Z,8.37
2023-02-14T01:10:19.643Z,9.10
2023-02-14T01:12:46.260Z,8.10
2023-02-14T01:15:12.980Z,8.57
2023-02-14T01:17:39.585Z,8.53
2023-02-14T01:20:07.216Z,8.23
2023-02-14T01:22:37.262Z,8.50
2023-02-14T01:25:04.633Z,8.57
2023-02-14T01:27:31.333Z,8.40
2023-02-14T01:29:57.984Z,8.53
2023-02-14T01:32:24.652Z,8.70
2023-02-14T01:34:51.240Z,8.10
2023-02-14T01:37:17.893Z,8.50
2023-02-14T01:39:44.511Z,8.60
2023-02-14T01:42:14.379Z,9.10
2023-02-14T01:44:41.332Z,8.10
2023-02-14T01:47:10.266Z,7.73
2023-02-14T01:49:43.765Z,8.60
2023-02-14T01:52:14.192Z,8.83
2023-02-14T01:54:46.499Z,8.33
2023-02-14T01:57:14.856Z,9.10
2023-02-14T01:59:45.743Z,9.67
2023-02-14T02:02:12.499Z,10.00
2023-02-14T02:04:41.256Z,10.00
2023-02-14T02:07:09.841Z,9.80
2023-02-14T02:09:42.370Z,9.90
2023-02-14T02:12:09.068Z,10.10
2023-02-14T02:14:36.392Z,10.03
2023-02-14T02:17:12.004Z,10.10
2023-02-14T02:19:54.776Z,9.63
2023-02-14T02:22:28.765Z,9.30
2023-02-14T02:24:55.300Z,8.63
2023-02-14T02:27:32.319Z,9.20
2023-02-14T02:30:05.607Z,8.60
2023-02-14T02:32:41.169Z,9.47
2023-02-14T02:35:07.778Z,9.43
2023-02-14T02:37:38.369Z,8.93
2023-02-14T02:40:10.796Z,9.47
2023-02-14T02:42:54.569Z,9.67
2023-02-14T02:45:27.917Z,9.03
2023-02-14T02:48:14.784Z,8.87
2023-02-14T02:51:07.839Z,8.77
2023-02-14T02:53:43.380Z,9.37
2023-02-14T02:56:35.873Z,9.27
2023-02-14T02:59:06.647Z,9.03
2023-02-14T03:01:37.894Z,8.70
2023-02-14T03:04:28.958Z,9.50
2023-02-14T03:06:55.911Z,8.97
2023-02-14T03:09:25.508Z,9.10
2023-02-14T03:12:12.692Z,9.17
2023-02-14T03:15:08.537Z,9.50
2023-02-14T03:17:53.672Z,8.93
2023-02-14T03:20:24.046Z,8.80
2023-02-14T03:23:03.363Z,8.40
2023-02-14T03:25:53.338Z,10.03
2023-02-14T03:28:22.833Z,8.80
2023-02-14T03:31:03.588Z,9.70
2023-02-14T03:33:33.508Z,8.80
2023-02-14T03:36:03.743Z,9.97
2023-02-14T03:38:43.275Z,8.67
2023-02-14T03:41:12.898Z,8.43
2023-02-14T03:43:43.929Z,8.73
2023-02-14T03:46:13.683Z,8.33
2023-02-14T03:48:40.947Z,9.03
2023-02-14T03:51:09.145Z,9.10
2023-02-14T03:53:38.293Z,9.60
2023-02-14T03:56:23.586Z,9.53
2023-02-14T03:58:51.958Z,9.13
2023-02-14T04:01:22.914Z,9.57
2023-02-14T04:03:50.576Z,8.47
2023-02-14T04:06:18.411Z,8.80
2023-02-14T04:08:45.041Z,9.20
2023-02-14T04:11:11.868Z,8.83
2023-02-14T04:13:38.835Z,9.80
2023-02-14T04:16:05.988Z,8.97
2023-02-14T04:18:51.898Z,9.30
2023-02-14T04:21:18.499Z,9.33
2023-02-14T04:23:45.040Z,8.77
2023-02-14T04:26:11.645Z,9.93
2023-02-14T04:28:39.878Z,9.27
2023-02-14T04:31:06.861Z,9.67
2023-02-14T04:33:33.859Z,8.57
2023-02-14T04:36:00.468Z,8.97
2023-02-14T04:38:27.380Z,9.17
2023-02-14T04:40:53.979Z,8.43
2023-02-14T04:43:20.631Z,9.07
2023-02-14T04:45:47.388Z,8.53
2023-02-14T04:48:13.961Z,8.97
2023-02-14T04:50:40.618Z,8.60
2023-02-14T04:53:07.751Z,8.20
2023-02-14T04:55:34.360Z,8.10
2023-02-14T04:58:00.973Z,8.30
2023-02-14T05:00:27.635Z,8.70
2023-02-14T05:02:54.361Z,9.03
2023-02-14T05:05:20.964Z,8.60
2023-02-14T05:07:47.942Z,8.23
2023-02-14T05:10:15.560Z,8.33
2023-02-14T05:12:42.211Z,7.87
2023-02-14T05:15:08.988Z,8.53
2023-02-14T05:17:36.258Z,8.97
2023-02-14T05:20:05.934Z,8.70
2023-02-14T05:22:32.541Z,8.83
2023-02-14T05:24:59.084Z,8.90
2023-02-14T05:27:25.620Z,8.63
2023-02-14T05:29:52.598Z,8.47
2023-02-14T05:32:19.198Z,7.80
2023-02-14T05:34:45.788Z,8.40
2023-02-14T05:37:12.348Z,8.87
2023-02-14T05:39:38.951Z,8.87
2023-02-14T05:42:05.563Z,8.60
2023-02-14T05:44:32.685Z,7.87
2023-02-14T05:46:59.297Z,8.80
2023-02-14T05:49:26.230Z,8.43
2023-02-14T05:51:54.854Z,8.57
2023-02-14T05:54:21.479Z,8.80
2023-02-14T05:56:49.099Z,8.57
2023-02-14T05:59:15.823Z,9.90
2023-02-14T06:01:42.432Z,8.53
2023-02-14T06:04:09.050Z,9.03
2023-02-14T06:06:36.727Z,9.23
2023-02-14T06:09:03.937Z,9.50
2023-02-14T06:11:30.714Z,9.23
2023-02-14T06:13:57.361Z,9.70
2023-02-14T06:16:24.037Z,8.23
2023-02-14T06:18:50.622Z,8.93
2023-02-14T06:21:17.235Z,9.10
2023-02-14T06:23:43.843Z,8.87
2023-02-14T06:26:10.508Z,9.07
2023-02-14T06:28:37.112Z,8.23
2023-02-14T06:31:04.181Z,8.83
2023-02-14T06:33:30.967Z,11.17
2023-02-14T06:35:57.630Z,11.10
2023-02-14T06:38:24.225Z,9.23
2023-02-14T06:40:51.266Z,8.73
2023-02-14T06:43:17.840Z,8.10
2023-02-14T06:45:46.378Z,7.23
2023-02-14T06:48:12.928Z,8.03
2023-02-14T06:50:39.523Z,8.77
2023-02-14T06:53:06.383Z,8.60
2023-02-14T06:55:34.024Z,8.77
2023-02-14T06:58:00.613Z,7.50
2023-02-14T07:00:27.259Z,7.60
2023-02-14T07:02:54.329Z,7.73
2023-02-14T07:05:21.984Z,6.83
2023-02-14T07:07:48.785Z,6.90
2023-02-14T07:10:16.449Z,7.00
2023-02-14T07:12:43.073Z,6.00
2023-02-14T07:15:10.914Z,6.33
2023-02-14T07:17:37.862Z,6.37
2023-02-14T07:20:06.360Z,6.83
2023-02-14T07:22:33.462Z,6.30
2023-02-14T07:24:59.989Z,6.67
2023-02-14T07:27:26.633Z,6.07
2023-02-14T07:29:53.179Z,6.10
2023-02-14T07:32:20.038Z,6.90
2023-02-14T07:34:47.892Z,7.10
2023-02-14T07:37:14.488Z,6.80
2023-02-14T07:39:41.565Z,6.60
2023-02-14T07:42:08.392Z,6.90
2023-02-14T07:44:35.249Z,6.20
2023-02-14T07:47:01.857Z,6.57
2023-02-14T07:49:28.429Z,6.87
2023-02-14T07:51:55.006Z,8.60
2023-02-14T07:54:21.656Z,7.30
2023-02-14T07:56:48.368Z,7.43
2023-02-14T07:59:15.168Z,7.40
2023-02-14T08:01:41.961Z,7.60
2023-02-14T08:04:08.607Z,7.67
2023-02-14T08:06:35.339Z,8.87
2023-02-14T08:09:02.101Z,8.30
2023-02-14T08:11:47.182Z,8.80
2023-02-14T08:14:14.101Z,13.97
2023-02-14T08:16:40.772Z,13.97
2023-02-14T08:19:07.377Z,12.00
2023-02-14T08:21:34.063Z,12.77
2023-02-14T08:24:00.858Z,11.47
2023-02-14T08:26:27.416Z,11.60
2023-02-14T08:28:54.408Z,12.30
2023-02-14T08:31:34.330Z,11.93
2023-02-14T08:34:01.539Z,11.73
2023-02-14T08:36:28.109Z,11.87
2023-02-14T08:38:55.797Z,11.93
2023-02-14T08:41:22.901Z,10.13
2023-02-14T08:43:49.720Z,9.33
2023-02-14T08:46:17.193Z,9.83
2023-02-14T08:48:43.992Z,10.33
2023-02-14T08:51:12.326Z,10.53
2023-02-14T08:53:39.739Z,9.43
2023-02-14T08:56:08.246Z,9.07
2023-02-14T08:58:38.727Z,9.03
2023-02-14T09:01:12.802Z,9.70
2023-02-14T09:03:40.094Z,9.53
2023-02-14T09:06:08.626Z,12.17
2023-02-14T09:08:36.778Z,12.37
2023-02-14T09:11:07.157Z,10.50
2023-02-14T09:13:33.844Z,9.53
2023-02-14T09:16:03.455Z,10.00
2023-02-14T09:18:30.064Z,9.17
2023-02-14T09:20:56.784Z,9.37
2023-02-14T09:23:23.744Z,9.20
2023-02-14T09:25:50.310Z,9.70
2023-02-14T09:28:16.888Z,9.20
2023-02-14T09:30:43.520Z,9.33
2023-02-14T09:33:10.097Z,9.70
2023-02-14T09:35:36.773Z,9.17
2023-02-14T09:38:19.101Z,9.50
2023-02-14T09:40:46.644Z,9.83
2023-02-14T09:43:32.393Z,9.27
2023-02-14T09:45:59.777Z,9.27
2023-02-14T09:48:36.488Z,7.80
2023-02-14T09:51:07.550Z,9.63
2023-02-14T09:53:43.952Z,8.33
2023-02-14T09:56:25.376Z,7.53
2023-02-14T09:59:11.734Z,8.07
2023-02-14T10:01:50.953Z,9.30
2023-02-14T10:04:34.306Z,8.40
2023-02-14T10:07:09.583Z,8.03
2023-02-14T10:09:39.209Z,8.07
2023-02-14T10:12:09.169Z,8.17
2023-02-14T10:14:40.893Z,8.03
2023-02-14T10:17:19.505Z,7.90
2023-02-14T10:19:49.989Z,7.53
2023-02-14T10:22:21.304Z,8.33
2023-02-14T10:24:49.496Z,8.30
2023-02-14T10:27:24.917Z,8.93
2023-02-14T10:29:51.893Z,9.50
2023-02-14T10:32:22.152Z,9.47
2023-02-14T10:34:49.898Z,8.47
2023-02-14T10:37:32.628Z,9.50
2023-02-14T10:40:18.088Z,9.77
2023-02-14T10:43:00.895Z,10.43
2023-02-14T10:45:44.711Z,9.40
2023-02-14T10:48:24.566Z,8.67
2023-02-14T10:50:54.908Z,8.67
2023-02-14T10:53:26.267Z,8.90
2023-02-14T10:56:00.255Z,8.20
2023-02-14T10:58:29.083Z,8.70
2023-02-14T11:00:56.222Z,8.50
2023-02-14T11:03:23.641Z,9.13
2023-02-14T11:05:50.309Z,8.07
2023-02-14T11:08:24.049Z,8.43
2023-02-14T11:10:51.163Z,7.63
2023-02-14T11:13:32.101Z,8.70
2023-02-14T11:16:00.082Z,8.07
2023-02-14T11:18:32.783Z,8.77
2023-02-14T11:21:10.002Z,7.93
2023-02-14T11:23:38.041Z,8.27
2023-02-14T11:26:10.352Z,8.17
2023-02-14T11:28:41.020Z,8.47
2023-02-14T11:31:09.059Z,8.27
2023-02-14T11:33:39.715Z,8.60
2023-02-14T11:36:10.732Z,8.17
2023-02-14T11:38:39.932Z,8.63
2023-02-14T11:41:07.804Z,8.40
2023-02-14T11:43:38.557Z,8.47
2023-02-14T11:46:14.307Z,8.50
2023-02-14T11:48:56.509Z,8.77
2023-02-14T11:51:46.359Z,7.97
2023-02-14T11:54:23.609Z,8.73
2023-02-14T11:56:53.952Z,8.10
2023-02-14T11:59:26.323Z,8.93
2023-02-14T12:01:53.309Z,8.90
2023-02-14T12:04:23.364Z,8.50
2023-02-14T12:06:50.321Z,8.70
2023-02-14T12:09:23.255Z,8.97
2023-02-14T12:12:00.266Z,9.33
2023-02-14T12:14:34.532Z,8.83
2023-02-14T12:17:04.652Z,9.20
2023-02-14T12:19:42.520Z,8.23
2023-02-14T12:22:11.194Z,8.97
2023-02-14T12:25:00.911Z,8.07
2023-02-14T12:27:44.614Z,8.50
2023-02-14T12:30:14.929Z,8.33
2023-02-14T12:32:47.361Z,8.63
2023-02-14T12:35:17.056Z,8.43
2023-02-14T12:37:55.981Z,7.90
2023-02-14T12:40:48.046Z,7.93
2023-02-14T12:43:20.484Z,7.90
2023-02-14T12:45:48.996Z,9.17
2023-02-14T12:48:23.460Z,8.50
2023-02-14T12:51:10.283Z,8.50
2023-02-14T12:53:48.614Z,7.53
2023-02-14T12:56:41.452Z,8.17
2023-02-14T12:59:23.308Z,8.10
2023-02-14T13:02:11.161Z,8.03
2023-02-14T13:04:46.870Z,8.27
2023-02-14T13:07:37.762Z,8.47
2023-02-14T13:10:15.501Z,8.23
2023-02-14T13:13:00.871Z,8.37
2023-02-14T13:15:48.198Z,8.07
2023-02-14T13:18:33.670Z,8.07
2023-02-14T13:21:02.207Z,8.53
2023-02-14T13:23:36.157Z,8.40
2023-02-14T13:26:24.894Z,7.20
2023-02-14T13:28:53.550Z,8.27
2023-02-14T13:31:20.782Z,8.10
2023-02-14T13:33:52.580Z,7.43
2023-02-14T13:36:19.737Z,7.90
2023-02-14T13:38:48.995Z,7.87
2023-02-14T13:41:16.447Z,7.60
2023-02-14T13:43:45.993Z,7.20
2023-02-14T13:46:13.600Z,8.00
2023-02-14T13:48:40.592Z,8.17
2023-02-14T13:51:08.310Z,7.97
2023-02-14T13:53:34.898Z,7.40
2023-02-14T13:56:15.381Z,8.00
2023-02-14T13:58:49.347Z,8.53
2023-02-14T14:01:31.530Z,7.50
2023-02-14T14:04:00.370Z,7.83
2023-02-14T14:06:27.469Z,8.57
2023-02-14T14:08:56.312Z,8.07
2023-02-14T14:11:25.954Z,7.57
2023-02-14T14:14:04.594Z,7.67
2023-02-14T14:16:33.487Z,8.30
2023-02-14T14:19:09.202Z,7.27
2023-02-14T14:21:40.580Z,9.10
2023-02-14T14:24:19.402Z,8.00
2023-02-14T14:26:47.620Z,8.97
2023-02-14T14:29:25.156Z,9.03
2023-02-14T14:31:56.000Z,9.23
2023-02-14T14:34:26.753Z,8.67
2023-02-14T14:37:03.223Z,8.50
2023-02-14T14:39:32.279Z,8.90
2023-02-14T14:42:07.050Z,9.77
2023-02-14T14:44:35.269Z,9.53
2023-02-14T14:47:02.168Z,11.43
2023-02-14T14:49:29.177Z,10.23
2023-02-14T14:51:57.302Z,9.50
2023-02-14T14:54:27.682Z,9.97
2023-02-14T14:57:01.474Z,10.33
2023-02-14T14:59:28.147Z,10.07
2023-02-14T15:01:55.065Z,9.83
2023-02-14T15:04:26.275Z,9.80
2023-02-14T15:06:55.062Z,9.87
2023-02-14T15:09:42.339Z,10.80
2023-02-14T15:12:28.878Z,9.53
2023-02-14T15:14:56.087Z,10.27
2023-02-14T15:17:25.562Z,10.53
2023-02-14T15:19:56.572Z,9.93
2023-02-14T15:22:27.416Z,10.37
2023-02-14T15:24:54.097Z,9.97
2023-02-14T15:27:24.474Z,10.10
2023-02-14T15:29:56.990Z,9.30
2023-02-14T15:32:24.388Z,9.53
2023-02-14T15:34:51.647Z,9.97
2023-02-14T15:37:19.132Z,9.03
2023-02-14T15:39:47.969Z,9.77
2023-02-14T15:42:29.915Z,9.40
2023-02-14T15:45:15.007Z,9.53
2023-02-14T15:47:42.053Z,9.87
2023-02-14T15:50:24.352Z,9.50
2023-02-14T15:52:52.149Z,10.87
2023-02-14T15:55:19.998Z,10.40
2023-02-14T15:57:54.762Z,9.77
2023-02-14T16:00:22.245Z,10.90
2023-02-14T16:02:54.252Z,10.37
2023-02-14T16:05:22.290Z,10.20
2023-02-14T16:08:06.300Z,11.77
2023-02-14T16:10:34.153Z,11.17
2023-02-14T16:13:00.942Z,11.23
2023-02-14T16:15:28.888Z,11.73
2023-02-14T16:17:55.652Z,10.83
2023-02-14T16:20:22.823Z,12.67
2023-02-14T16:22:49.862Z,12.40
2023-02-14T16:25:16.576Z,12.17
2023-02-14T16:27:43.179Z,12.33
2023-02-14T16:30:17.208Z,12.57
2023-02-14T16:32:47.779Z,13.23
2023-02-14T16:35:18.205Z,13.10
2023-02-14T16:37:47.999Z,12.63
2023-02-14T16:40:15.288Z,13.47
2023-02-14T16:42:42.012Z,15.20
2023-02-14T16:45:14.812Z,13.53
2023-02-14T16:47:41.994Z,15.17
2023-02-14T16:50:08.864Z,14.20
2023-02-14T16:52:35.741Z,14.63
2023-02-14T16:55:02.651Z,13.73
2023-02-14T16:57:31.966Z,14.73
2023-02-14T16:59:58.494Z,14.27
2023-02-14T17:02:28.502Z,15.70
2023-02-14T17:04:55.521Z,13.83
2023-02-14T17:07:22.806Z,14.70
2023-02-14T17:09:52.236Z,14.60
2023-02-14T17:12:21.568Z,14.90
2023-02-14T17:14:49.322Z,15.17
2023-02-14T17:17:16.347Z,15.50
2023-02-14T17:19:44.002Z,17.00
2023-02-14T17:22:13.771Z,17.40
2023-02-14T17:24:40.850Z,15.83
2023-02-14T17:27:10.137Z,17.17
2023-02-14T17:29:37.124Z,17.67
2023-02-14T17:32:03.897Z,17.27
2023-02-14T17:34:31.161Z,16.87
2023-02-14T17:36:57.754Z,17.43
2023-02-14T17:39:24.326Z,16.60
2023-02-14T17:41:50.921Z,16.50
2023-02-14T17:44:18.059Z,17.30
2023-02-14T17:46:44.695Z,17.47
2023-02-14T17:49:11.302Z,17.33
2023-02-14T17:51:37.908Z,18.00
2023-02-14T17:54:04.564Z,18.30
2023-02-14T17:56:31.288Z,20.77
2023-02-14T17:58:57.939Z,19.83
2023-02-14T18:01:26.094Z,18.10
2023-02-14T18:03:53.376Z,19.03
2023-02-14T18:06:20.233Z,18.77
2023-02-14T18:08:53.122Z,19.50
2023-02-14T18:11:20.443Z,18.43
2023-02-14T18:13:47.296Z,19.43
2023-02-14T18:16:15.801Z,19.60
2023-02-14T18:18:44.493Z,18.13
2023-02-14T18:21:12.403Z,19.23
2023-02-14T18:23:39.160Z,18.13
2023-02-14T18:26:07.571Z,18.67
2023-02-14T18:28:34.592Z,17.67
2023-02-14T18:31:05.405Z,17.83
2023-02-14T18:33:32.122Z,18.27
2023-02-14T18:36:01.599Z,18.97
2023-02-14T18:38:28.406Z,18.53
2023-02-14T18:40:54.976Z,19.70
2023-02-14T18:43:21.706Z,20.17
2023-02-14T18:45:48.327Z,19.30
2023-02-14T18:48:14.894Z,17.43
2023-02-14T18:50:42.244Z,18.03
2023-02-14T18:53:09.087Z,18.57
2023-02-14T18:55:36.798Z,18.33
2023-02-14T18:58:03.361Z,18.83
2023-02-14T19:00:32.501Z,18.97
2023-02-14T19:02:59.318Z,18.70
2023-02-14T19:05:26.326Z,19.07
2023-02-14T19:07:55.405Z,19.47
2023-02-14T19:10:21.930Z,18.30
2023-02-14T19:12:48.665Z,18.33
2023-02-14T19:15:15.357Z,19.83
2023-02-14T19:17:41.988Z,19.43
2023-02-14T19:20:08.829Z,19.33
2023-02-14T19:22:38.983Z,20.80
2023-02-14T19:25:05.820Z,20.47
2023-02-14T19:27:33.840Z,20.73
2023-02-14T19:30:01.016Z,22.30
2023-02-14T19:32:27.852Z,20.57
2023-02-14T19:34:56.361Z,21.03
2023-02-14T19:37:22.940Z,20.23
2023-02-14T19:39:49.473Z,21.20
2023-02-14T19:42:16.678Z,20.63
2023-02-14T19:44:43.260Z,21.47
2023-02-14T19:47:26.892Z,21.23
2023-02-14T19:49:58.698Z,22.10
2023-02-14T19:52:26.785Z,23.10
2023-02-14T19:54:57.748Z,22.47
2023-02-14T19:57:24.568Z,20.43
2023-02-14T19:59:51.158Z,21.17
2023-02-14T20:02:20.077Z,21.33
2023-02-14T20:04:46.972Z,21.27
2023-02-14T20:07:13.519Z,21.07
2023-02-14T20:09:40.090Z,20.43
2023-02-14T20:12:06.886Z,21.33
2023-02-14T20:14:49.858Z,19.13
2023-02-14T20:17:18.114Z,20.17
2023-02-14T20:19:45.170Z,19.77
2023-02-14T20:22:11.811Z,22.23
2023-02-14T20:24:38.724Z,20.93
2023-02-14T20:27:05.277Z,21.30
2023-02-14T20:29:32.378Z,21.17
2023-02-14T20:32:00.044Z,21.10
2023-02-14T20:34:27.815Z,21.53
2023-02-14T20:36:55.977Z,20.70
2023-02-14T20:39:23.982Z,19.73
2023-02-14T20:41:50.602Z,19.27
2023-02-14T20:44:19.940Z,17.60
2023-02-14T20:46:47.696Z,18.73
2023-02-14T20:49:14.274Z,18.53
2023-02-14T20:51:41.466Z,17.10
2023-02-14T20:54:15.802Z,17.67
2023-02-14T20:56:44.206Z,17.43
2023-02-14T20:59:11.503Z,16.53
2023-02-14T21:01:38.254Z,17.17
2023-02-14T21:04:05.057Z,16.20
2023-02-14T21:06:33.070Z,15.57
2023-02-14T21:08:59.991Z,14.67
2023-02-14T21:11:27.922Z,16.17
2023-02-14T21:13:59.845Z,15.30
2023-02-14T21:16:27.423Z,14.70
2023-02-14T21:18:59.266Z,14.03
2023-02-14T21:21:32.299Z,14.50
2023-02-14T21:23:59.795Z,15.17
2023-02-14T21:26:26.344Z,15.00
2023-02-14T21:28:53.040Z,14.53
2023-02-14T21:31:21.893Z,13.37
2023-02-14T21:33:53.608Z,14.40
2023-02-14T21:36:21.209Z,14.30
2023-02-14T21:38:47.895Z,14.43
2023-02-14T21:41:15.642Z,14.27
2023-02-14T21:43:43.540Z,15.50
2023-02-14T21:46:12.437Z,14.60
2023-02-14T21:48:58.478Z,14.37
2023-02-14T21:51:27.788Z,14.70
2023-02-14T21:53:55.105Z,14.47
2023-02-14T21:56:22.572Z,14.87
2023-02-14T21:58:50.775Z,15.30
2023-02-14T22:01:28.079Z,14.77
2023-02-14T22:03:55.602Z,15.20
2023-02-14T22:06:22.859Z,15.37
2023-02-14T22:08:54.379Z,14.83
2023-02-14T22:11:22.896Z,15.40
2023-02-14T22:13:49.769Z,15.90
2023-02-14T22:16:18.671Z,15.60
2023-02-14T22:18:47.800Z,16.13
2023-02-14T22:21:21.462Z,15.07
2023-02-14T22:23:48.467Z,15.03
2023-02-14T22:26:16.952Z,16.73
2023-02-14T22:28:44.752Z,16.50
2023-02-14T22:31:11.649Z,16.30
2023-02-14T22:33:38.332Z,16.13
2023-02-14T22:36:05.460Z,16.77
2023-02-14T22:38:32.636Z,16.73
2023-02-14T22:41:05.010Z,15.77
2023-02-14T22:43:31.776Z,16.00
2023-02-14T22:46:02.254Z,16.60
2023-02-14T22:48:29.942Z,16.63
2023-02-14T22:50:56.933Z,17.33
2023-02-14T22:53:23.606Z,16.80
2023-02-14T22:55:50.228Z,16.63
2023-02-14T22:58:16.810Z,16.33
2023-02-14T23:00:43.908Z,18.83
2023-02-14T23:03:10.580Z,17.57
2023-02-14T23:05:37.153Z,18.17
2023-02-14T23:08:03.797Z,17.63
2023-02-14T23:10:30.477Z,17.67
2023-02-14T23:13:15.723Z,18.17
2023-02-14T23:16:01.649Z,17.30
2023-02-14T23:18:47.326Z,16.40
2023-02-14T23:21:32.772Z,15.83
2023-02-14T23:23:59.401Z,17.43
2023-02-14T23:26:25.953Z,17.47
2023-02-14T23:28:52.534Z,17.70
2023-02-14T23:31:19.378Z,17.80
2023-02-14T23:33:50.622Z,19.00
2023-02-14T23:36:19.762Z,18.33
2023-02-14T23:38:46.324Z,18.13
2023-02-14T23:41:31.964Z,17.63
2023-02-14T23:43:59.255Z,18.40
2023-02-14T23:46:25.946Z,20.13
2023-02-14T23:48:52.485Z,18.83
2023-02-14T23:51:19.061Z,19.63
